Decoded Metar for KLBX (ANGLETON in TX, USA) (IATA:LBX) | Meteo·Mobile Aviation Weather
aviador You're here:

KLBX Decoded Metar

ANGLETON in TX, USA
Report Time2019-01-20 20:53:00
UTC Time2019-01-20 21:06:25
Flight Rules vfr VFR
Wind010° at 10 kt
W.Decomp.*RWY 35: 9.7 kt HW 2.6 kt RCW
W.Rank010° ranks 6
Current wind is above 010° avg. (7.0)
Visibility9999 m
Phenomena:N/A
Clouds:N/A
Expected CloudBase > 5,200 ft AGL from Temp-Dew spread
CeilingNone
Temp11°C (ISA -4)
Dew Point-2°C (41% RH)
AAT5.2°C
QNH1026 hPa
Density Alt-817 ft
Elevation20 ft
Report Wrong Elevation
Raw Report
KLBX 202053Z AUTO 01010KT 10SM CLR 11/M02 A3029 RMK AO2 SLP258
T01111017 56036 $=

Extra information for KLBX:More info

Metar Taf Metar & Taf Last 4 Metars F.Rules Stats Wind Profile Meteogram Temp Stats Airport Information Weather charts Add Link Nearby VenuesMetar ALERT Operation Metar Decoded Social comments

AIRNAV info for KLBX